sensor_id;sensor_type;location;lat;lon;timestamp;pressure;altitude;pressure_sealevel;temperature;humidity
69306;BME280;56427;51.580;4.656;2023-11-21T00:02:24;101155.69;;;4.72;99.17
69306;BME280;56427;51.580;4.656;2023-11-21T00:04:50;101146.16;;;4.77;98.97
69306;BME280;56427;51.580;4.656;2023-11-21T00:07:15;101150.44;;;4.78;98.08
69306;BME280;56427;51.580;4.656;2023-11-21T00:09:41;101150.31;;;4.84;97.85
69306;BME280;56427;51.580;4.656;2023-11-21T00:12:07;101140.16;;;4.77;97.35
69306;BME280;56427;51.580;4.656;2023-11-21T00:14:36;101149.47;;;4.84;98.17
69306;BME280;56427;51.580;4.656;2023-11-21T00:17:02;101148.59;;;4.83;98.22
69306;BME280;56427;51.580;4.656;2023-11-21T00:19:27;101154.03;;;4.68;98.34
69306;BME280;56427;51.580;4.656;2023-11-21T00:21:52;101150.78;;;4.60;98.54
69306;BME280;56427;51.580;4.656;2023-11-21T00:24:18;101151.63;;;4.60;98.49
69306;BME280;56427;51.580;4.656;2023-11-21T00:26:43;101154.81;;;4.73;98.78
69306;BME280;56427;51.580;4.656;2023-11-21T00:29:09;101162.41;;;4.79;98.72
69306;BME280;56427;51.580;4.656;2023-11-21T00:31:36;101157.66;;;4.58;98.36
69306;BME280;56427;51.580;4.656;2023-11-21T00:34:04;101158.97;;;4.34;98.38
69306;BME280;56427;51.580;4.656;2023-11-21T00:36:32;101154.88;;;4.22;98.46
69306;BME280;56427;51.580;4.656;2023-11-21T00:38:59;101150.53;;;4.24;98.56
69306;BME280;56427;51.580;4.656;2023-11-21T00:41:25;101155.78;;;4.18;98.46
69306;BME280;56427;51.580;4.656;2023-11-21T00:43:53;101154.13;;;4.16;98.63
69306;BME280;56427;51.580;4.656;2023-11-21T00:46:19;101149.88;;;4.13;98.73
69306;BME280;56427;51.580;4.656;2023-11-21T00:48:44;101148.09;;;4.18;99.03
69306;BME280;56427;51.580;4.656;2023-11-21T00:51:09;101142.31;;;4.05;99.19
69306;BME280;56427;51.580;4.656;2023-11-21T00:53:35;101162.00;;;4.05;99.51
69306;BME280;56427;51.580;4.656;2023-11-21T00:56:00;101164.50;;;4.08;99.63
69306;BME280;56427;51.580;4.656;2023-11-21T00:58:26;101159.63;;;4.44;100.00
69306;BME280;56427;51.580;4.656;2023-11-21T01:00:52;101160.31;;;4.53;100.00
69306;BME280;56427;51.580;4.656;2023-11-21T01:03:18;101162.84;;;4.55;99.98
69306;BME280;56427;51.580;4.656;2023-11-21T01:05:43;101164.41;;;4.64;100.00
69306;BME280;56427;51.580;4.656;2023-11-21T01:08:09;101173.78;;;4.65;100.00
69306;BME280;56427;51.580;4.656;2023-11-21T01:10:34;101172.19;;;4.60;100.00
69306;BME280;56427;51.580;4.656;2023-11-21T01:13:00;101173.91;;;4.58;100.00
69306;BME280;56427;51.580;4.656;2023-11-21T01:15:25;101176.97;;;4.77;100.00
69306;BME280;56427;51.580;4.656;2023-11-21T01:17:53;101184.66;;;4.80;100.00
69306;BME280;56427;51.580;4.656;2023-11-21T01:20:19;101185.56;;;4.76;100.00
69306;BME280;56427;51.580;4.656;2023-11-21T01:22:44;101187.03;;;4.90;100.00
69306;BME280;56427;51.580;4.656;2023-11-21T01:25:10;101182.41;;;5.07;100.00
69306;BME280;56427;51.580;4.656;2023-11-21T01:27:36;101192.34;;;5.25;100.00
69306;BME280;56427;51.580;4.656;2023-11-21T01:30:05;101188.41;;;5.49;100.00
69306;BME280;56427;51.580;4.656;2023-11-21T01:32:32;101196.25;;;5.82;100.00
69306;BME280;56427;51.580;4.656;2023-11-21T01:34:58;101199.34;;;5.59;100.00
69306;BME280;56427;51.580;4.656;2023-11-21T01:37:24;101208.50;;;5.72;100.00
69306;BME280;56427;51.580;4.656;2023-11-21T01:39:53;101201.28;;;5.88;100.00
69306;BME280;56427;51.580;4.656;2023-11-21T01:42:18;101203.06;;;5.84;100.00
69306;BME280;56427;51.580;4.656;2023-11-21T01:44:44;101209.00;;;5.88;100.00
69306;BME280;56427;51.580;4.656;2023-11-21T01:47:09;101216.66;;;5.92;100.00
69306;BME280;56427;51.580;4.656;2023-11-21T01:49:36;101213.94;;;5.99;100.00
69306;BME280;56427;51.580;4.656;2023-11-21T01:52:02;101223.06;;;6.12;100.00
69306;BME280;56427;51.580;4.656;2023-11-21T01:54:29;101225.16;;;6.32;100.00
69306;BME280;56427;51.580;4.656;2023-11-21T01:56:58;101220.94;;;6.29;100.00
69306;BME280;56427;51.580;4.656;2023-11-21T01:59:33;101227.66;;;6.35;100.00
69306;BME280;56427;51.580;4.656;2023-11-21T02:01:59;101227.09;;;6.58;100.00
69306;BME280;56427;51.580;4.656;2023-11-21T02:04:24;101231.72;;;6.79;100.00
69306;BME280;56427;51.580;4.656;2023-11-21T02:06:50;101222.09;;;6.86;99.74
69306;BME280;56427;51.580;4.656;2023-11-21T02:09:16;101229.50;;;6.96;99.33
69306;BME280;56427;51.580;4.656;2023-11-21T02:11:42;101227.28;;;7.15;99.49
69306;BME280;56427;51.580;4.656;2023-11-21T02:14:09;101237.25;;;6.96;99.50
69306;BME280;56427;51.580;4.656;2023-11-21T02:16:35;101238.72;;;6.74;99.76
69306;BME280;56427;51.580;4.656;2023-11-21T02:19:02;101239.63;;;6.71;100.00
69306;BME280;56427;51.580;4.656;2023-11-21T02:21:28;101246.03;;;6.57;100.00
69306;BME280;56427;51.580;4.656;2023-11-21T02:23:55;101246.31;;;6.79;100.00
69306;BME280;56427;51.580;4.656;2023-11-21T02:26:21;101250.28;;;6.92;100.00
69306;BME280;56427;51.580;4.656;2023-11-21T02:28:46;101249.41;;;6.91;100.00
69306;BME280;56427;51.580;4.656;2023-11-21T02:31:12;101251.66;;;7.03;99.86
69306;BME280;56427;51.580;4.656;2023-11-21T02:33:37;101249.59;;;7.18;99.81
69306;BME280;56427;51.580;4.656;2023-11-21T02:36:03;101248.19;;;7.06;99.86
69306;BME280;56427;51.580;4.656;2023-11-21T02:38:28;101250.34;;;6.89;99.78
69306;BME280;56427;51.580;4.656;2023-11-21T02:40:54;101253.03;;;6.84;100.00
69306;BME280;56427;51.580;4.656;2023-11-21T02:43:19;101245.13;;;6.90;100.00
69306;BME280;56427;51.580;4.656;2023-11-21T02:45:45;101248.06;;;7.09;100.00
69306;BME280;56427;51.580;4.656;2023-11-21T02:48:10;101247.53;;;7.29;100.00
69306;BME280;56427;51.580;4.656;2023-11-21T02:50:35;101251.44;;;7.44;100.00
69306;BME280;56427;51.580;4.656;2023-11-21T02:53:01;101245.81;;;7.59;100.00
69306;BME280;56427;51.580;4.656;2023-11-21T02:55:27;101249.81;;;7.69;99.79
69306;BME280;56427;51.580;4.656;2023-11-21T02:57:53;101245.09;;;7.83;99.56
69306;BME280;56427;51.580;4.656;2023-11-21T03:00:18;101247.34;;;7.94;98.84
69306;BME280;56427;51.580;4.656;2023-11-21T03:02:44;101252.50;;;7.94;98.80
69306;BME280;56427;51.580;4.656;2023-11-21T03:05:10;101251.28;;;8.06;98.43
69306;BME280;56427;51.580;4.656;2023-11-21T03:07:37;101252.69;;;8.16;98.42
69306;BME280;56427;51.580;4.656;2023-11-21T03:10:03;101257.94;;;7.85;98.43
69306;BME280;56427;51.580;4.656;2023-11-21T03:12:29;101253.13;;;8.02;99.05
69306;BME280;56427;51.580;4.656;2023-11-21T03:14:55;101259.94;;;8.05;99.20
69306;BME280;56427;51.580;4.656;2023-11-21T03:17:21;101252.31;;;7.72;99.42
69306;BME280;56427;51.580;4.656;2023-11-21T03:19:46;101261.31;;;7.59;99.66
69306;BME280;56427;51.580;4.656;2023-11-21T03:22:11;101267.22;;;7.63;100.00
69306;BME280;56427;51.580;4.656;2023-11-21T03:24:37;101257.88;;;7.88;100.00
69306;BME280;56427;51.580;4.656;2023-11-21T03:27:03;101261.88;;;7.98;99.76
69306;BME280;56427;51.580;4.656;2023-11-21T03:29:29;101257.31;;;8.06;99.36
69306;BME280;56427;51.580;4.656;2023-11-21T03:31:54;101266.56;;;8.14;99.01
69306;BME280;56427;51.580;4.656;2023-11-21T03:34:24;101263.84;;;8.17;99.33
69306;BME280;56427;51.580;4.656;2023-11-21T03:36:51;101272.31;;;8.22;99.51
69306;BME280;56427;51.580;4.656;2023-11-21T03:39:17;101263.41;;;8.32;99.53
69306;BME280;56427;51.580;4.656;2023-11-21T03:41:43;101266.22;;;8.24;99.69
69306;BME280;56427;51.580;4.656;2023-11-21T03:44:08;101268.66;;;8.29;99.72
69306;BME280;56427;51.580;4.656;2023-11-21T03:46:33;101265.66;;;8.15;99.43
69306;BME280;56427;51.580;4.656;2023-11-21T03:48:59;101258.50;;;8.23;99.72
69306;BME280;56427;51.580;4.656;2023-11-21T03:51:24;101267.06;;;8.25;99.87
69306;BME280;56427;51.580;4.656;2023-11-21T03:53:49;101278.13;;;8.30;99.80
69306;BME280;56427;51.580;4.656;2023-11-21T03:56:15;101278.97;;;8.29;100.00
69306;BME280;56427;51.580;4.656;2023-11-21T03:58:40;101285.91;;;8.28;100.00
69306;BME280;56427;51.580;4.656;2023-11-21T04:01:05;101298.59;;;8.37;100.00
69306;BME280;56427;51.580;4.656;2023-11-21T04:03:31;101295.81;;;8.42;100.00
69306;BME280;56427;51.580;4.656;2023-11-21T04:05:56;101300.13;;;8.43;100.00
69306;BME280;56427;51.580;4.656;2023-11-21T04:08:22;101311.31;;;8.44;100.00
69306;BME280;56427;51.580;4.656;2023-11-21T04:10:47;101300.81;;;8.48;100.00
69306;BME280;56427;51.580;4.656;2023-11-21T04:13:13;101298.91;;;8.55;100.00
69306;BME280;56427;51.580;4.656;2023-11-21T04:15:39;101308.22;;;8.59;99.95
69306;BME280;56427;51.580;4.656;2023-11-21T04:18:04;101308.41;;;8.53;100.00
69306;BME280;56427;51.580;4.656;2023-11-21T04:20:29;101316.75;;;8.62;100.00
69306;BME280;56427;51.580;4.656;2023-11-21T04:22:55;101319.28;;;8.64;99.60
69306;BME280;56427;51.580;4.656;2023-11-21T04:25:20;101324.59;;;8.59;99.77
69306;BME280;56427;51.580;4.656;2023-11-21T04:27:46;101329.06;;;8.54;99.77
69306;BME280;56427;51.580;4.656;2023-11-21T04:30:12;101328.06;;;8.58;99.98
69306;BME280;56427;51.580;4.656;2023-11-21T04:32:37;101339.31;;;8.57;100.00
69306;BME280;56427;51.580;4.656;2023-11-21T04:35:04;101334.94;;;8.59;100.00
69306;BME280;56427;51.580;4.656;2023-11-21T04:37:30;101343.00;;;8.50;100.00
69306;BME280;56427;51.580;4.656;2023-11-21T04:39:55;101336.06;;;8.51;100.00
69306;BME280;56427;51.580;4.656;2023-11-21T04:42:20;101345.13;;;8.64;100.00
69306;BME280;56427;51.580;4.656;2023-11-21T04:44:46;101352.06;;;8.63;100.00
69306;BME280;56427;51.580;4.656;2023-11-21T04:47:11;101346.63;;;8.71;100.00
69306;BME280;56427;51.580;4.656;2023-11-21T04:49:37;101349.00;;;8.77;100.00
69306;BME280;56427;51.580;4.656;2023-11-21T04:52:02;101354.84;;;8.84;100.00
69306;BME280;56427;51.580;4.656;2023-11-21T04:54:30;101353.59;;;8.96;100.00
69306;BME280;56427;51.580;4.656;2023-11-21T04:56:56;101353.16;;;8.83;99.87
69306;BME280;56427;51.580;4.656;2023-11-21T04:59:22;101360.66;;;8.90;99.90
69306;BME280;56427;51.580;4.656;2023-11-21T05:01:50;101359.09;;;8.86;99.86
69306;BME280;56427;51.580;4.656;2023-11-21T05:04:15;101363.25;;;8.90;99.73
69306;BME280;56427;51.580;4.656;2023-11-21T05:06:41;101364.63;;;9.01;99.85
69306;BME280;56427;51.580;4.656;2023-11-21T05:09:06;101366.38;;;9.00;99.55
69306;BME280;56427;51.580;4.656;2023-11-21T05:11:36;101363.16;;;8.94;99.37
69306;BME280;56427;51.580;4.656;2023-11-21T05:14:02;101368.84;;;9.03;99.51
69306;BME280;56427;51.580;4.656;2023-11-21T05:16:29;101369.50;;;9.10;99.43
69306;BME280;56427;51.580;4.656;2023-11-21T05:18:54;101371.88;;;9.16;99.39
69306;BME280;56427;51.580;4.656;2023-11-21T05:21:25;101379.91;;;9.08;99.00
69306;BME280;56427;51.580;4.656;2023-11-21T05:23:51;101389.22;;;9.14;99.12
69306;BME280;56427;51.580;4.656;2023-11-21T05:26:16;101380.66;;;9.12;99.04
69306;BME280;56427;51.580;4.656;2023-11-21T05:28:42;101378.09;;;9.10;99.01
69306;BME280;56427;51.580;4.656;2023-11-21T05:31:07;101375.44;;;9.13;99.20
69306;BME280;56427;51.580;4.656;2023-11-21T05:33:32;101383.69;;;8.98;99.23
69306;BME280;56427;51.580;4.656;2023-11-21T05:35:58;101386.44;;;8.94;99.39
69306;BME280;56427;51.580;4.656;2023-11-21T05:38:24;101388.91;;;8.97;99.74
69306;BME280;56427;51.580;4.656;2023-11-21T05:40:49;101396.94;;;8.89;99.86
69306;BME280;56427;51.580;4.656;2023-11-21T05:43:15;101408.81;;;8.95;99.94
69306;BME280;56427;51.580;4.656;2023-11-21T05:45:40;101414.38;;;8.82;99.90
69306;BME280;56427;51.580;4.656;2023-11-21T05:48:06;101415.31;;;8.80;100.00
69306;BME280;56427;51.580;4.656;2023-11-21T05:50:31;101414.63;;;8.75;100.00
69306;BME280;56427;51.580;4.656;2023-11-21T05:52:57;101428.31;;;8.78;100.00
69306;BME280;56427;51.580;4.656;2023-11-21T05:55:25;101424.78;;;8.81;100.00
69306;BME280;56427;51.580;4.656;2023-11-21T05:57:51;101427.28;;;8.84;100.00
69306;BME280;56427;51.580;4.656;2023-11-21T06:00:16;101418.66;;;8.83;100.00
69306;BME280;56427;51.580;4.656;2023-11-21T06:02:51;101422.09;;;8.84;100.00
69306;BME280;56427;51.580;4.656;2023-11-21T06:05:19;101428.41;;;8.75;100.00
69306;BME280;56427;51.580;4.656;2023-11-21T06:07:45;101433.41;;;8.81;100.00
69306;BME280;56427;51.580;4.656;2023-11-21T06:10:11;101444.66;;;8.79;100.00
69306;BME280;56427;51.580;4.656;2023-11-21T06:12:40;101443.44;;;8.90;100.00
69306;BME280;56427;51.580;4.656;2023-11-21T06:15:08;101452.56;;;9.02;100.00
69306;BME280;56427;51.580;4.656;2023-11-21T06:17:35;101461.59;;;8.89;100.00
69306;BME280;56427;51.580;4.656;2023-11-21T06:20:05;101459.16;;;8.84;100.00
69306;BME280;56427;51.580;4.656;2023-11-21T06:22:38;101460.53;;;8.96;100.00
69306;BME280;56427;51.580;4.656;2023-11-21T06:25:05;101457.28;;;8.89;100.00
69306;BME280;56427;51.580;4.656;2023-11-21T06:27:32;101465.03;;;8.89;100.00
69306;BME280;56427;51.580;4.656;2023-11-21T06:29:58;101459.34;;;9.06;100.00
69306;BME280;56427;51.580;4.656;2023-11-21T06:32:23;101474.13;;;9.03;100.00
69306;BME280;56427;51.580;4.656;2023-11-21T06:34:48;101463.81;;;9.01;100.00
69306;BME280;56427;51.580;4.656;2023-11-21T06:37:15;101460.47;;;8.98;100.00
69306;BME280;56427;51.580;4.656;2023-11-21T06:39:40;101466.06;;;9.12;100.00
69306;BME280;56427;51.580;4.656;2023-11-21T06:42:05;101475.16;;;8.97;100.00
69306;BME280;56427;51.580;4.656;2023-11-21T06:44:31;101482.66;;;9.05;100.00
69306;BME280;56427;51.580;4.656;2023-11-21T06:46:56;101479.09;;;9.09;100.00
69306;BME280;56427;51.580;4.656;2023-11-21T06:49:21;101484.78;;;9.20;100.00
69306;BME280;56427;51.580;4.656;2023-11-21T06:51:48;101488.06;;;9.25;100.00
69306;BME280;56427;51.580;4.656;2023-11-21T06:54:13;101500.91;;;9.28;100.00
69306;BME280;56427;51.580;4.656;2023-11-21T06:56:39;101488.72;;;9.05;100.00
69306;BME280;56427;51.580;4.656;2023-11-21T06:59:05;101486.25;;;9.01;100.00
69306;BME280;56427;51.580;4.656;2023-11-21T07:01:31;101490.59;;;9.00;100.00
69306;BME280;56427;51.580;4.656;2023-11-21T07:03:59;101494.16;;;8.96;100.00
69306;BME280;56427;51.580;4.656;2023-11-21T07:06:24;101505.53;;;8.90;100.00
69306;BME280;56427;51.580;4.656;2023-11-21T07:08:50;101518.47;;;8.90;100.00
69306;BME280;56427;51.580;4.656;2023-11-21T07:11:15;101517.50;;;8.95;100.00
69306;BME280;56427;51.580;4.656;2023-11-21T07:13:40;101527.19;;;8.88;100.00
69306;BME280;56427;51.580;4.656;2023-11-21T07:16:06;101532.38;;;8.88;100.00
69306;BME280;56427;51.580;4.656;2023-11-21T07:18:31;101530.44;;;8.95;100.00
69306;BME280;56427;51.580;4.656;2023-11-21T07:21:00;101533.03;;;8.95;100.00
69306;BME280;56427;51.580;4.656;2023-11-21T07:23:25;101527.06;;;8.93;100.00
69306;BME280;56427;51.580;4.656;2023-11-21T07:25:51;101538.94;;;8.98;100.00
69306;BME280;56427;51.580;4.656;2023-11-21T07:28:16;101536.28;;;9.01;100.00
69306;BME280;56427;51.580;4.656;2023-11-21T07:30:41;101543.19;;;9.01;100.00
69306;BME280;56427;51.580;4.656;2023-11-21T07:33:08;101535.63;;;8.95;100.00
69306;BME280;56427;51.580;4.656;2023-11-21T07:35:33;101541.72;;;8.92;100.00
69306;BME280;56427;51.580;4.656;2023-11-21T07:37:59;101544.88;;;9.02;100.00
69306;BME280;56427;51.580;4.656;2023-11-21T07:40:24;101538.03;;;9.01;100.00
69306;BME280;56427;51.580;4.656;2023-11-21T07:42:50;101548.84;;;9.13;100.00
69306;BME280;56427;51.580;4.656;2023-11-21T07:45:16;101548.72;;;9.16;100.00
69306;BME280;56427;51.580;4.656;2023-11-21T07:47:42;101547.34;;;9.06;100.00
69306;BME280;56427;51.580;4.656;2023-11-21T07:50:07;101560.41;;;9.02;100.00
69306;BME280;56427;51.580;4.656;2023-11-21T07:52:33;101558.97;;;8.93;100.00
69306;BME280;56427;51.580;4.656;2023-11-21T07:54:58;101570.47;;;8.83;100.00
69306;BME280;56427;51.580;4.656;2023-11-21T07:57:24;101573.94;;;8.82;100.00
69306;BME280;56427;51.580;4.656;2023-11-21T07:59:49;101575.28;;;8.95;100.00
69306;BME280;56427;51.580;4.656;2023-11-21T08:02:15;101584.00;;;8.93;100.00
69306;BME280;56427;51.580;4.656;2023-11-21T08:04:41;101586.78;;;8.85;100.00
69306;BME280;56427;51.580;4.656;2023-11-21T08:07:07;101595.97;;;8.95;100.00
69306;BME280;56427;51.580;4.656;2023-11-21T08:09:32;101585.84;;;8.87;100.00
69306;BME280;56427;51.580;4.656;2023-11-21T08:11:59;101595.34;;;8.87;100.00
69306;BME280;56427;51.580;4.656;2023-11-21T08:14:25;101609.59;;;9.02;100.00
69306;BME280;56427;51.580;4.656;2023-11-21T08:16:51;101607.41;;;8.88;100.00
69306;BME280;56427;51.580;4.656;2023-11-21T08:19:17;101610.44;;;9.02;100.00
69306;BME280;56427;51.580;4.656;2023-11-21T08:21:43;101606.69;;;9.12;100.00
69306;BME280;56427;51.580;4.656;2023-11-21T08:24:09;101620.53;;;9.11;100.00
69306;BME280;56427;51.580;4.656;2023-11-21T08:26:36;101629.03;;;9.15;100.00
69306;BME280;56427;51.580;4.656;2023-11-21T08:29:02;101627.53;;;9.36;100.00
69306;BME280;56427;51.580;4.656;2023-11-21T08:31:27;101629.25;;;9.37;100.00
69306;BME280;56427;51.580;4.656;2023-11-21T08:33:54;101619.94;;;9.30;100.00
69306;BME280;56427;51.580;4.656;2023-11-21T08:36:23;101620.59;;;9.36;100.00
69306;BME280;56427;51.580;4.656;2023-11-21T08:38:50;101612.72;;;9.41;100.00
69306;BME280;56427;51.580;4.656;2023-11-21T08:41:17;101623.69;;;9.49;100.00
69306;BME280;56427;51.580;4.656;2023-11-21T08:43:44;101629.06;;;9.43;100.00
69306;BME280;56427;51.580;4.656;2023-11-21T08:46:10;101632.16;;;9.54;100.00
69306;BME280;56427;51.580;4.656;2023-11-21T08:48:36;101625.03;;;9.61;100.00
69306;BME280;56427;51.580;4.656;2023-11-21T08:51:03;101629.16;;;9.68;100.00
69306;BME280;56427;51.580;4.656;2023-11-21T08:53:29;101633.31;;;9.72;100.00
69306;BME280;56427;51.580;4.656;2023-11-21T08:55:54;101631.56;;;9.72;100.00
69306;BME280;56427;51.580;4.656;2023-11-21T08:58:19;101635.19;;;9.68;100.00
69306;BME280;56427;51.580;4.656;2023-11-21T09:00:45;101645.44;;;9.71;100.00
69306;BME280;56427;51.580;4.656;2023-11-21T09:03:12;101643.34;;;9.83;100.00
69306;BME280;56427;51.580;4.656;2023-11-21T09:05:38;101644.84;;;9.90;100.00
69306;BME280;56427;51.580;4.656;2023-11-21T09:08:04;101650.78;;;9.93;100.00
69306;BME280;56427;51.580;4.656;2023-11-21T09:10:30;101661.03;;;9.96;100.00
69306;BME280;56427;51.580;4.656;2023-11-21T09:12:55;101657.75;;;9.91;100.00
69306;BME280;56427;51.580;4.656;2023-11-21T09:15:21;101666.44;;;9.90;100.00
69306;BME280;56427;51.580;4.656;2023-11-21T09:17:47;101661.31;;;9.89;100.00
69306;BME280;56427;51.580;4.656;2023-11-21T09:20:12;101672.97;;;10.02;100.00
69306;BME280;56427;51.580;4.656;2023-11-21T09:22:40;101668.88;;;9.95;100.00
69306;BME280;56427;51.580;4.656;2023-11-21T09:25:05;101678.78;;;10.09;100.00
69306;BME280;56427;51.580;4.656;2023-11-21T09:27:32;101688.13;;;10.14;100.00
69306;BME280;56427;51.580;4.656;2023-11-21T09:29:57;101681.59;;;10.03;100.00
69306;BME280;56427;51.580;4.656;2023-11-21T09:32:23;101689.06;;;10.12;100.00
69306;BME280;56427;51.580;4.656;2023-11-21T09:34:49;101690.00;;;10.09;100.00
69306;BME280;56427;51.580;4.656;2023-11-21T09:37:15;101694.50;;;10.31;100.00
69306;BME280;56427;51.580;4.656;2023-11-21T09:39:41;101698.56;;;10.13;100.00
69306;BME280;56427;51.580;4.656;2023-11-21T09:47:29;101699.63;;;10.34;100.00
69306;BME280;56427;51.580;4.656;2023-11-21T09:49:56;101699.97;;;10.23;100.00
69306;BME280;56427;51.580;4.656;2023-11-21T09:52:26;101699.63;;;10.34;100.00
69306;BME280;56427;51.580;4.656;2023-11-21T09:54:53;101703.06;;;10.34;100.00
69306;BME280;56427;51.580;4.656;2023-11-21T09:57:22;101719.16;;;10.44;100.00
69306;BME280;56427;51.580;4.656;2023-11-21T09:59:52;101719.00;;;10.48;100.00
69306;BME280;56427;51.580;4.656;2023-11-21T10:02:25;101714.63;;;10.50;100.00
69306;BME280;56427;51.580;4.656;2023-11-21T10:04:52;101715.94;;;10.62;100.00
69306;BME280;56427;51.580;4.656;2023-11-21T10:07:19;101717.78;;;10.59;100.00
69306;BME280;56427;51.580;4.656;2023-11-21T10:09:46;101728.97;;;10.61;100.00
69306;BME280;56427;51.580;4.656;2023-11-21T10:12:17;101738.81;;;10.51;100.00
69306;BME280;56427;51.580;4.656;2023-11-21T10:14:43;101741.63;;;10.45;100.00
69306;BME280;56427;51.580;4.656;2023-11-21T10:17:12;101748.34;;;10.50;100.00
69306;BME280;56427;51.580;4.656;2023-11-21T10:19:41;101750.19;;;10.47;100.00
69306;BME280;56427;51.580;4.656;2023-11-21T10:22:07;101752.78;;;10.47;100.00
69306;BME280;56427;51.580;4.656;2023-11-21T10:24:34;101747.31;;;10.56;100.00
69306;BME280;56427;51.580;4.656;2023-11-21T10:26:59;101762.00;;;10.29;100.00
69306;BME280;56427;51.580;4.656;2023-11-21T10:29:29;101761.09;;;10.30;100.00
69306;BME280;56427;51.580;4.656;2023-11-21T10:31:55;101764.03;;;10.19;100.00
69306;BME280;56427;51.580;4.656;2023-11-21T10:34:22;101780.22;;;10.27;100.00
69306;BME280;56427;51.580;4.656;2023-11-21T10:36:48;101776.72;;;10.29;100.00
69306;BME280;56427;51.580;4.656;2023-11-21T10:39:17;101772.03;;;10.40;100.00
69306;BME280;56427;51.580;4.656;2023-11-21T10:41:47;101775.78;;;10.31;100.00
69306;BME280;56427;51.580;4.656;2023-11-21T10:44:17;101775.41;;;10.42;100.00
69306;BME280;56427;51.580;4.656;2023-11-21T10:46:52;101782.66;;;10.32;100.00
69306;BME280;56427;51.580;4.656;2023-11-21T10:49:22;101784.25;;;10.36;100.00
69306;BME280;56427;51.580;4.656;2023-11-21T10:51:50;101778.38;;;10.31;100.00
69306;BME280;56427;51.580;4.656;2023-11-21T10:54:21;101782.88;;;10.52;100.00
69306;BME280;56427;51.580;4.656;2023-11-21T10:56:53;101777.31;;;10.37;100.00
69306;BME280;56427;51.580;4.656;2023-11-21T10:59:19;101781.91;;;10.29;100.00
69306;BME280;56427;51.580;4.656;2023-11-21T11:01:46;101779.31;;;10.29;100.00
69306;BME280;56427;51.580;4.656;2023-11-21T11:04:13;101790.38;;;10.34;100.00
69306;BME280;56427;51.580;4.656;2023-11-21T11:07:05;101788.78;;;10.30;100.00
69306;BME280;56427;51.580;4.656;2023-11-21T11:09:32;101798.97;;;10.36;100.00
69306;BME280;56427;51.580;4.656;2023-11-21T11:12:03;101801.28;;;10.45;100.00
69306;BME280;56427;51.580;4.656;2023-11-21T11:14:32;101811.94;;;10.62;100.00
69306;BME280;56427;51.580;4.656;2023-11-21T11:16:58;101801.41;;;10.40;100.00
69306;BME280;56427;51.580;4.656;2023-11-21T11:19:26;101808.59;;;10.32;100.00
69306;BME280;56427;51.580;4.656;2023-11-21T11:27:47;101829.75;;;10.18;100.00
69306;BME280;56427;51.580;4.656;2023-11-21T11:36:06;101824.41;;;10.24;100.00
69306;BME280;56427;51.580;4.656;2023-11-21T11:38:33;101817.44;;;10.53;100.00
69306;BME280;56427;51.580;4.656;2023-11-21T11:41:05;101813.47;;;10.69;100.00
69306;BME280;56427;51.580;4.656;2023-11-21T11:43:31;101820.03;;;10.53;100.00
69306;BME280;56427;51.580;4.656;2023-11-21T11:46:10;101825.22;;;10.53;100.00
69306;BME280;56427;51.580;4.656;2023-11-21T11:48:39;101828.34;;;10.36;100.00
69306;BME280;56427;51.580;4.656;2023-11-21T11:51:11;101834.56;;;10.31;100.00
69306;BME280;56427;51.580;4.656;2023-11-21T11:53:43;101839.84;;;10.27;100.00
69306;BME280;56427;51.580;4.656;2023-11-21T11:56:26;101843.88;;;10.08;100.00
69306;BME280;56427;51.580;4.656;2023-11-21T11:58:57;101844.47;;;10.16;100.00
69306;BME280;56427;51.580;4.656;2023-11-21T12:01:24;101849.84;;;10.10;100.00
69306;BME280;56427;51.580;4.656;2023-11-21T12:06:48;101857.06;;;10.00;100.00
69306;BME280;56427;51.580;4.656;2023-11-21T12:09:19;101853.13;;;9.87;100.00
69306;BME280;56427;51.580;4.656;2023-11-21T12:11:47;101855.56;;;9.92;100.00
69306;BME280;56427;51.580;4.656;2023-11-21T12:14:13;101856.56;;;9.88;100.00
69306;BME280;56427;51.580;4.656;2023-11-21T12:16:39;101862.09;;;10.05;100.00
69306;BME280;56427;51.580;4.656;2023-11-21T12:19:05;101862.72;;;9.84;100.00
69306;BME280;56427;51.580;4.656;2023-11-21T12:21:30;101870.28;;;9.91;100.00
69306;BME280;56427;51.580;4.656;2023-11-21T12:23:57;101870.94;;;9.98;100.00
69306;BME280;56427;51.580;4.656;2023-11-21T12:26:24;101873.50;;;9.99;100.00
69306;BME280;56427;51.580;4.656;2023-11-21T12:28:52;101875.69;;;9.84;100.00
69306;BME280;56427;51.580;4.656;2023-11-21T12:31:21;101881.50;;;9.92;100.00
69306;BME280;56427;51.580;4.656;2023-11-21T12:33:46;101880.91;;;9.82;100.00
69306;BME280;56427;51.580;4.656;2023-11-21T12:36:12;101881.66;;;9.86;100.00
69306;BME280;56427;51.580;4.656;2023-11-21T12:38:38;101890.25;;;9.88;100.00
69306;BME280;56427;51.580;4.656;2023-11-21T12:41:03;101886.91;;;9.84;100.00
69306;BME280;56427;51.580;4.656;2023-11-21T12:43:29;101883.38;;;9.87;100.00
69306;BME280;56427;51.580;4.656;2023-11-21T12:46:24;101892.03;;;9.86;100.00
69306;BME280;56427;51.580;4.656;2023-11-21T12:48:53;101885.16;;;9.85;100.00
69306;BME280;56427;51.580;4.656;2023-11-21T12:51:19;101889.53;;;9.83;100.00
69306;BME280;56427;51.580;4.656;2023-11-21T12:53:44;101891.66;;;9.99;100.00
69306;BME280;56427;51.580;4.656;2023-11-21T12:56:11;101900.53;;;9.91;100.00
69306;BME280;56427;51.580;4.656;2023-11-21T12:58:37;101898.38;;;10.05;100.00
69306;BME280;56427;51.580;4.656;2023-11-21T13:01:07;101901.94;;;10.03;100.00
69306;BME280;56427;51.580;4.656;2023-11-21T13:03:40;101892.28;;;10.08;100.00
69306;BME280;56427;51.580;4.656;2023-11-21T13:06:06;101903.06;;;9.94;100.00
69306;BME280;56427;51.580;4.656;2023-11-21T13:08:33;101898.94;;;10.16;100.00